createdAt,value
2018-09-22T00:00:14.470Z,1010.25
2018-09-22T00:01:14.489Z,1010.24
2018-09-22T00:02:14.514Z,1010.28
2018-09-22T00:03:14.531Z,1010.24
2018-09-22T00:04:14.550Z,1010.25
2018-09-22T00:05:14.579Z,1010.29
2018-09-22T00:06:14.614Z,1010.25
2018-09-22T00:07:14.636Z,1010.25
2018-09-22T00:08:14.655Z,1010.28
2018-09-22T00:09:14.655Z,1010.24
2018-09-22T00:10:14.678Z,1010.24
2018-09-22T00:11:14.733Z,1010.28
2018-09-22T00:12:14.724Z,1010.33
2018-09-22T00:13:14.737Z,1010.35
2018-09-22T00:14:14.760Z,1010.40
2018-09-22T00:15:14.784Z,1010.41
2018-09-22T00:16:14.802Z,1010.44
2018-09-22T00:17:14.821Z,1010.44
2018-09-22T00:18:14.851Z,1010.45
2018-09-22T00:19:14.887Z,1010.50
2018-09-22T00:20:14.887Z,1010.50
2018-09-22T00:21:14.918Z,1010.47
2018-09-22T00:22:14.935Z,1010.48
2018-09-22T00:23:14.948Z,1010.46
2018-09-22T00:24:14.973Z,1010.46
2018-09-22T00:25:15.012Z,1010.47
2018-09-22T00:26:15.013Z,1010.47
2018-09-22T00:27:15.126Z,1010.51
2018-09-22T00:28:15.054Z,1010.48
2018-09-22T00:29:15.075Z,1010.49
2018-09-22T00:30:15.114Z,1010.46
2018-09-22T00:31:15.165Z,1010.53
2018-09-22T00:32:15.139Z,1010.53
2018-09-22T00:33:15.164Z,1010.54
2018-09-22T00:34:15.177Z,1010.57
2018-09-22T00:35:15.228Z,1010.54
2018-09-22T00:36:15.221Z,1010.52
2018-09-22T00:37:15.244Z,1010.54
2018-09-22T00:38:15.264Z,1010.51
2018-09-22T00:39:15.301Z,1010.55
2018-09-22T00:40:15.316Z,1010.53
2018-09-22T00:41:15.344Z,1010.47
2018-09-22T00:42:15.351Z,1010.49
2018-09-22T00:43:15.370Z,1010.54
2018-09-22T00:44:15.386Z,1010.56
2018-09-22T00:45:15.410Z,1010.61
2018-09-22T00:46:15.432Z,1010.64
2018-09-22T00:47:15.460Z,1010.64
2018-09-22T00:48:15.477Z,1010.65
2018-09-22T00:49:15.497Z,1010.66
2018-09-22T00:50:15.586Z,1010.67
2018-09-22T00:51:15.537Z,1010.67
2018-09-22T00:52:15.562Z,1010.68
2018-09-22T00:53:15.586Z,1010.67
2018-09-22T00:54:15.594Z,1010.71
2018-09-22T00:55:15.626Z,1010.67
2018-09-22T00:56:15.647Z,1010.73
2018-09-22T00:57:15.666Z,1010.74
2018-09-22T00:58:15.679Z,1010.77
2018-09-22T00:59:15.711Z,1010.76
2018-09-22T01:00:15.727Z,1010.76
2018-09-22T01:01:15.752Z,1010.73
2018-09-22T01:02:15.784Z,1010.79
2018-09-22T01:03:15.782Z,1010.81
2018-09-22T01:04:15.820Z,1010.84
2018-09-22T01:05:15.826Z,1010.89
2018-09-22T01:06:15.854Z,1010.86
2018-09-22T01:07:15.880Z,1010.83
2018-09-22T01:08:15.900Z,1010.90
2018-09-22T01:09:15.929Z,1010.81
2018-09-22T01:10:15.937Z,1010.79
2018-09-22T01:11:15.966Z,1010.79
2018-09-22T01:12:15.978Z,1010.82
2018-09-22T01:13:16.001Z,1010.88
2018-09-22T01:14:16.116Z,1010.95
2018-09-22T01:15:16.043Z,1010.95
2018-09-22T01:16:16.058Z,1010.96
2018-09-22T01:17:16.079Z,1010.98
2018-09-22T01:18:16.111Z,1010.92
2018-09-22T01:19:16.125Z,1010.89
2018-09-22T01:20:16.138Z,1010.86
2018-09-22T01:21:16.179Z,1010.88
2018-09-22T01:22:16.199Z,1010.88
2018-09-22T01:23:16.205Z,1010.95
2018-09-22T01:24:16.233Z,1010.93
2018-09-22T01:25:16.290Z,1010.98
2018-09-22T01:26:16.279Z,1010.99
2018-09-22T01:27:16.295Z,1011.01
2018-09-22T01:28:16.310Z,1010.97
2018-09-22T01:29:16.330Z,1011.00
2018-09-22T01:30:16.351Z,1010.97
2018-09-22T01:31:16.373Z,1010.96
2018-09-22T01:32:16.403Z,1010.99
2018-09-22T01:33:16.413Z,1011.00
2018-09-22T01:34:16.433Z,1011.02
2018-09-22T01:35:16.454Z,1011.02
2018-09-22T01:36:16.485Z,1011.06
2018-09-22T01:37:16.495Z,1011.08
2018-09-22T01:38:16.517Z,1011.11
2018-09-22T01:39:16.541Z,1011.13
2018-09-22T01:40:16.564Z,1011.06
2018-09-22T01:41:16.579Z,1011.05
2018-09-22T01:42:16.599Z,1011.03
2018-09-22T01:43:16.621Z,1011.02
2018-09-22T01:44:16.641Z,1010.99
2018-09-22T01:45:16.665Z,1010.97
2018-09-22T01:46:16.690Z,1010.99
2018-09-22T01:47:16.703Z,1010.98
2018-09-22T01:48:16.733Z,1010.99
2018-09-22T01:49:16.744Z,1011.01
2018-09-22T01:50:16.765Z,1011.02
2018-09-22T01:51:16.783Z,1011.01
2018-09-22T01:52:16.811Z,1011.09
2018-09-22T01:53:16.920Z,1011.15
2018-09-22T01:54:16.844Z,1011.12
2018-09-22T01:55:16.874Z,1011.11
2018-09-22T01:56:16.890Z,1011.09
2018-09-22T01:57:16.910Z,1011.09
2018-09-22T01:58:16.926Z,1011.10
2018-09-22T01:59:16.960Z,1011.07
2018-09-22T02:00:16.972Z,1011.09
2018-09-22T02:01:16.987Z,1011.06
2018-09-22T02:02:17.020Z,1010.95
2018-09-22T02:03:17.040Z,1010.88
2018-09-22T02:04:17.093Z,1010.86
2018-09-22T02:05:17.072Z,1010.82
2018-09-22T02:06:17.169Z,1010.82
2018-09-22T02:07:17.123Z,1010.81
2018-09-22T02:08:17.147Z,1010.81
2018-09-22T02:09:17.170Z,1010.84
2018-09-22T02:10:17.183Z,1010.87
2018-09-22T02:11:17.204Z,1010.85
2018-09-22T02:12:17.222Z,1010.82
2018-09-22T02:13:17.242Z,1010.82
2018-09-22T02:14:17.257Z,1010.80
2018-09-22T02:15:17.288Z,1010.80
2018-09-22T02:16:17.308Z,1010.72
2018-09-22T02:17:17.325Z,1010.70
2018-09-22T02:18:17.345Z,1010.68
2018-09-22T02:19:17.370Z,1010.74
2018-09-22T02:20:17.389Z,1010.83
2018-09-22T02:21:17.407Z,1010.91
2018-09-22T02:22:17.423Z,1010.97
2018-09-22T02:23:17.459Z,1010.96
2018-09-22T02:24:17.480Z,1011.07
2018-09-22T02:25:17.488Z,1011.02
2018-09-22T02:26:17.510Z,1011.01
2018-09-22T02:27:17.530Z,1010.93
2018-09-22T02:28:17.552Z,1010.93
2018-09-22T02:29:17.567Z,1010.95
2018-09-22T02:30:17.593Z,1011.00
2018-09-22T02:31:17.614Z,1011.00
2018-09-22T02:32:17.657Z,1011.06
2018-09-22T02:33:17.655Z,1011.10
2018-09-22T02:34:17.679Z,1011.17
2018-09-22T02:35:17.693Z,1011.23
2018-09-22T02:36:17.711Z,1011.27
2018-09-22T02:37:17.734Z,1011.27
2018-09-22T02:38:17.767Z,1011.26
2018-09-22T02:39:17.779Z,1011.18
2018-09-22T02:40:17.798Z,1011.11
2018-09-22T02:41:17.890Z,1011.08
2018-09-22T02:42:17.841Z,1011.11
2018-09-22T02:43:17.863Z,1011.20
2018-09-22T02:44:17.879Z,1011.28
2018-09-22T02:45:17.898Z,1011.29
2018-09-22T02:46:17.928Z,1011.31
2018-09-22T02:47:17.942Z,1011.26
2018-09-22T02:48:17.960Z,1011.27
2018-09-22T02:49:17.985Z,1011.27
2018-09-22T02:50:18.008Z,1011.30
2018-09-22T02:51:18.022Z,1011.34
2018-09-22T02:52:18.043Z,1011.31
2018-09-22T02:53:18.070Z,1011.31
2018-09-22T02:54:18.091Z,1011.33
2018-09-22T02:55:18.110Z,1011.34
2018-09-22T02:56:18.148Z,1011.32
2018-09-22T02:57:18.151Z,1011.34
2018-09-22T02:58:18.168Z,1011.30
2018-09-22T02:59:18.199Z,1011.35
2018-09-22T03:00:18.235Z,1011.34
2018-09-22T03:01:18.232Z,1011.38
2018-09-22T03:02:18.260Z,1011.33
2018-09-22T03:03:18.275Z,1011.32
2018-09-22T03:04:18.294Z,1011.26
2018-09-22T03:05:18.346Z,1011.29
2018-09-22T03:06:18.339Z,1011.27
2018-09-22T03:07:18.355Z,1011.28
2018-09-22T03:08:18.381Z,1011.31
2018-09-22T03:09:18.396Z,1011.31
2018-09-22T03:10:18.433Z,1011.33
2018-09-22T03:11:18.433Z,1011.44
2018-09-22T03:12:18.461Z,1011.40
2018-09-22T03:13:19.373Z,1011.44
2018-09-22T03:14:18.508Z,1011.41
2018-09-22T03:15:18.553Z,1011.36
2018-09-22T03:16:18.539Z,1011.39
2018-09-22T03:17:18.569Z,1011.36
2018-09-22T03:18:18.584Z,1011.40
2018-09-22T03:19:18.609Z,1011.51
2018-09-22T03:20:18.729Z,1011.57
2018-09-22T03:21:18.654Z,1011.57
2018-09-22T03:22:18.663Z,1011.60
2018-09-22T03:23:18.694Z,1011.62
2018-09-22T03:24:18.713Z,1011.63
2018-09-22T03:25:18.729Z,1011.64
2018-09-22T03:26:18.752Z,1011.64
2018-09-22T03:27:18.769Z,1011.67
2018-09-22T03:28:18.786Z,1011.71
2018-09-22T03:29:18.819Z,1011.70
2018-09-22T03:30:18.838Z,1011.65
2018-09-22T03:31:18.938Z,1011.67
2018-09-22T03:32:18.903Z,1011.69
2018-09-22T03:33:18.905Z,1011.72
2018-09-22T03:34:18.916Z,1011.75
2018-09-22T03:35:18.935Z,1011.71
2018-09-22T03:36:18.956Z,1011.73
2018-09-22T03:37:18.986Z,1011.68
2018-09-22T03:38:19.003Z,1011.67
2018-09-22T03:39:19.020Z,1011.68
2018-09-22T03:40:19.053Z,1011.68
2018-09-22T03:41:19.069Z,1011.65
2018-09-22T03:42:19.087Z,1011.69
2018-09-22T03:43:19.114Z,1011.65
2018-09-22T03:44:19.172Z,1011.68
2018-09-22T03:45:19.172Z,1011.65
2018-09-22T03:46:19.167Z,1011.60
2018-09-22T03:47:19.190Z,1011.57
2018-09-22T03:48:19.215Z,1011.54
2018-09-22T03:49:19.233Z,1011.45
2018-09-22T03:50:19.244Z,1011.46
2018-09-22T03:51:19.266Z,1011.43
2018-09-22T03:52:19.289Z,1011.40
2018-09-22T03:53:19.307Z,1011.32
2018-09-22T03:54:19.327Z,1011.26
2018-09-22T03:55:19.362Z,1011.38
2018-09-22T03:56:19.364Z,1011.38
2018-09-22T03:57:19.400Z,1011.39
2018-09-22T03:58:19.419Z,1011.36
2018-09-22T03:59:19.451Z,1011.39
2018-09-22T04:00:19.456Z,1011.34
2018-09-22T04:01:19.481Z,1011.40
2018-09-22T04:02:19.509Z,1011.40
2018-09-22T04:03:19.512Z,1011.40
2018-09-22T04:04:19.535Z,1011.36
2018-09-22T04:05:19.550Z,1011.39
2018-09-22T04:06:19.572Z,1011.40
2018-09-22T04:07:19.586Z,1011.40
2018-09-22T04:08:19.616Z,1011.35
2018-09-22T04:09:19.631Z,1011.30
2018-09-22T04:10:19.656Z,1011.33
2018-09-22T04:11:19.680Z,1011.35
2018-09-22T04:12:19.690Z,1011.34
2018-09-22T04:13:19.712Z,1011.34
2018-09-22T04:14:19.743Z,1011.33
2018-09-22T04:15:19.758Z,1011.26
2018-09-22T04:16:19.777Z,1011.29
2018-09-22T04:17:19.798Z,1011.28
2018-09-22T04:18:19.819Z,1011.28
2018-09-22T04:19:19.839Z,1011.27
2018-09-22T04:20:19.861Z,1011.29
2018-09-22T04:21:20.403Z,1011.38
2018-09-22T04:22:19.896Z,1011.39
2018-09-22T04:23:19.992Z,1011.40
2018-09-22T04:24:19.969Z,1011.36
2018-09-22T04:25:19.966Z,1011.45
2018-09-22T04:26:19.984Z,1011.49
2018-09-22T04:27:20.008Z,1011.47
2018-09-22T04:28:20.024Z,1011.51
2018-09-22T04:29:20.051Z,1011.54
2018-09-22T04:30:20.094Z,1011.55
2018-09-22T04:31:20.090Z,1011.60
2018-09-22T04:32:20.130Z,1011.61
2018-09-22T04:33:20.189Z,1011.64
2018-09-22T04:34:20.237Z,1011.65
2018-09-22T04:35:20.165Z,1011.61
2018-09-22T04:36:20.193Z,1011.66
2018-09-22T04:37:20.234Z,1011.64
2018-09-22T04:38:20.239Z,1011.64
2018-09-22T04:39:20.263Z,1011.61
2018-09-22T04:40:20.903Z,1011.65
2018-09-22T04:41:20.287Z,1011.60
2018-09-22T04:42:20.312Z,1011.66
2018-09-22T04:43:20.331Z,1011.65
2018-09-22T04:44:20.357Z,1011.65
2018-09-22T04:45:20.376Z,1011.64
2018-09-22T04:46:20.395Z,1011.68
2018-09-22T04:47:20.458Z,1011.65
2018-09-22T04:48:20.449Z,1011.63
2018-09-22T04:49:20.454Z,1011.66
2018-09-22T04:50:20.471Z,1011.68
2018-09-22T04:51:20.528Z,1011.71
2018-09-22T04:52:20.536Z,1011.66
2018-09-22T04:53:20.542Z,1011.61
2018-09-22T04:54:20.560Z,1011.61
2018-09-22T04:55:20.578Z,1011.65
2018-09-22T04:56:20.598Z,1011.73
2018-09-22T04:57:20.618Z,1011.71
2018-09-22T04:58:20.642Z,1011.74
2018-09-22T04:59:20.660Z,1011.70
2018-09-22T05:00:20.686Z,1011.68
2018-09-22T05:01:20.730Z,1011.71
2018-09-22T05:02:20.724Z,1011.73
2018-09-22T05:03:20.738Z,1011.66
2018-09-22T05:04:20.780Z,1011.67
2018-09-22T05:05:20.788Z,1011.68
2018-09-22T05:06:20.798Z,1011.64
2018-09-22T05:07:20.820Z,1011.72
2018-09-22T05:08:20.855Z,1011.76
2018-09-22T05:09:20.867Z,1011.74
2018-09-22T05:10:20.882Z,1011.70
2018-09-22T05:11:20.904Z,1011.73
2018-09-22T05:12:20.942Z,1011.75
2018-09-22T05:13:20.951Z,1011.75
2018-09-22T05:14:20.978Z,1011.75
2018-09-22T05:15:21.083Z,1011.77
2018-09-22T05:16:21.018Z,1011.75
2018-09-22T05:17:21.037Z,1011.79
2018-09-22T05:18:21.049Z,1011.78
2018-09-22T05:19:21.064Z,1011.82
2018-09-22T05:20:21.089Z,1011.84
2018-09-22T05:21:21.119Z,1011.89
2018-09-22T05:22:21.131Z,1011.89
2018-09-22T05:23:21.918Z,1011.92
2018-09-22T05:24:21.169Z,1011.88
2018-09-22T05:25:21.187Z,1011.94
2018-09-22T05:26:21.277Z,1011.98
2018-09-22T05:27:21.225Z,1012.00
2018-09-22T05:28:21.252Z,1012.01
2018-09-22T05:29:21.265Z,1011.99
2018-09-22T05:30:21.287Z,1011.98
2018-09-22T05:31:21.307Z,1012.03
2018-09-22T05:32:21.337Z,1012.04
2018-09-22T05:33:21.357Z,1012.09
2018-09-22T05:34:21.369Z,1012.14
2018-09-22T05:35:21.413Z,1012.14
2018-09-22T05:36:21.412Z,1012.13
2018-09-22T05:37:21.436Z,1012.17
2018-09-22T05:38:21.456Z,1012.15
2018-09-22T05:39:21.537Z,1012.14
2018-09-22T05:40:21.493Z,1012.13
2018-09-22T05:41:21.517Z,1012.13
2018-09-22T05:42:21.531Z,1012.15
2018-09-22T05:43:21.550Z,1012.13
2018-09-22T05:44:21.580Z,1012.18
2018-09-22T05:45:22.427Z,1012.16
2018-09-22T05:46:21.613Z,1012.18
2018-09-22T05:47:21.638Z,1012.15
2018-09-22T05:48:21.654Z,1012.16
2018-09-22T05:49:21.674Z,1012.14
2018-09-22T05:50:21.777Z,1012.13
2018-09-22T05:51:21.717Z,1012.11
2018-09-22T05:52:21.732Z,1012.11
2018-09-22T05:53:21.760Z,1012.10
2018-09-22T05:54:21.772Z,1012.13
2018-09-22T05:55:21.798Z,1012.07
2018-09-22T05:56:21.823Z,1012.01
2018-09-22T05:57:21.840Z,1012.03
2018-09-22T05:58:21.855Z,1012.01
2018-09-22T05:59:21.886Z,1012.04
2018-09-22T06:00:21.910Z,1012.03
2018-09-22T06:01:21.917Z,1012.07
2018-09-22T06:02:21.953Z,1012.06
2018-09-22T06:03:22.048Z,1012.04
2018-09-22T06:04:21.985Z,1012.03
2018-09-22T06:05:21.998Z,1012.11
2018-09-22T06:06:22.019Z,1012.13
2018-09-22T06:07:22.043Z,1012.14
2018-09-22T06:08:22.086Z,1012.14
2018-09-22T06:09:22.123Z,1012.15
2018-09-22T06:10:22.137Z,1012.16
2018-09-22T06:11:22.140Z,1012.19
2018-09-22T06:12:22.149Z,1012.21
2018-09-22T06:13:22.190Z,1012.24
2018-09-22T06:14:22.182Z,1012.25
2018-09-22T06:15:22.210Z,1012.25
2018-09-22T06:16:22.229Z,1012.28
2018-09-22T06:17:22.244Z,1012.35
2018-09-22T06:18:22.275Z,1012.36
2018-09-22T06:19:22.282Z,1012.40
2018-09-22T06:20:22.312Z,1012.40
2018-09-22T06:21:22.317Z,1012.43
2018-09-22T06:22:22.346Z,1012.47
2018-09-22T06:23:22.420Z,1012.48
2018-09-22T06:24:22.404Z,1012.51
2018-09-22T06:25:22.405Z,1012.56
2018-09-22T06:26:22.424Z,1012.52
2018-09-22T06:27:22.443Z,1012.54
2018-09-22T06:28:22.466Z,1012.53
2018-09-22T06:29:22.531Z,1012.50
2018-09-22T06:30:22.510Z,1012.48
2018-09-22T06:31:22.620Z,1012.51
2018-09-22T06:32:22.548Z,1012.52
2018-09-22T06:33:22.569Z,1012.51
2018-09-22T06:34:22.585Z,1012.50
2018-09-22T06:35:22.603Z,1012.55
2018-09-22T06:36:22.640Z,1012.55
2018-09-22T06:37:22.667Z,1012.51
2018-09-22T06:38:22.669Z,1012.48
2018-09-22T06:39:22.694Z,1012.50
2018-09-22T06:40:22.715Z,1012.45
2018-09-22T06:41:22.734Z,1012.44
2018-09-22T06:42:22.757Z,1012.50
2018-09-22T06:43:22.767Z,1012.51
2018-09-22T06:44:22.790Z,1012.54
2018-09-22T06:45:22.828Z,1012.53
2018-09-22T06:46:22.885Z,1012.57
2018-09-22T06:47:22.856Z,1012.60
2018-09-22T06:48:22.871Z,1012.66
2018-09-22T06:49:22.891Z,1012.70
2018-09-22T06:50:22.926Z,1012.74
2018-09-22T06:51:22.938Z,1012.74
2018-09-22T06:52:22.968Z,1012.74
2018-09-22T06:53:22.979Z,1012.78
2018-09-22T06:54:23.010Z,1012.82
2018-09-22T06:55:23.011Z,1012.80
2018-09-22T06:56:23.038Z,1012.82
2018-09-22T06:57:23.066Z,1012.82
2018-09-22T06:58:23.077Z,1012.77
2018-09-22T06:59:23.100Z,1012.74
2018-09-22T07:00:23.131Z,1012.78
2018-09-22T07:01:23.146Z,1012.73
2018-09-22T07:02:23.161Z,1012.75
2018-09-22T07:03:23.199Z,1012.71
2018-09-22T07:04:23.203Z,1012.76
2018-09-22T07:05:23.222Z,1012.72
2018-09-22T07:06:23.420Z,1012.77
2018-09-22T07:07:23.277Z,1012.82
2018-09-22T07:08:23.291Z,1012.79
2018-09-22T07:09:23.307Z,1012.77
2018-09-22T07:10:23.336Z,1012.75
2018-09-22T07:11:23.353Z,1012.73
2018-09-22T07:12:23.378Z,1012.69
2018-09-22T07:13:23.403Z,1012.70
2018-09-22T07:14:23.403Z,1012.73
2018-09-22T07:15:23.436Z,1012.72
2018-09-22T07:16:23.454Z,1012.75
2018-09-22T07:17:23.474Z,1012.71
2018-09-22T07:18:23.505Z,1012.67
2018-09-22T07:19:23.581Z,1012.67
2018-09-22T07:20:23.528Z,1012.65
2018-09-22T07:21:23.553Z,1012.55
2018-09-22T07:22:23.571Z,1012.61
2018-09-22T07:23:23.585Z,1012.58
2018-09-22T07:24:23.625Z,1012.58
2018-09-22T07:25:23.698Z,1012.62
2018-09-22T07:26:23.656Z,1012.60
2018-09-22T07:27:23.687Z,1012.64
2018-09-22T07:28:23.693Z,1012.61
2018-09-22T07:29:23.725Z,1012.64
2018-09-22T07:30:23.752Z,1012.58
2018-09-22T07:31:23.780Z,1012.61
2018-09-22T07:32:23.773Z,1012.64
2018-09-22T07:33:23.789Z,1012.61
2018-09-22T07:34:23.883Z,1012.58
2018-09-22T07:35:23.842Z,1012.58
2018-09-22T07:36:23.858Z,1012.51
2018-09-22T07:37:23.872Z,1012.50
2018-09-22T07:38:23.908Z,1012.50
2018-09-22T07:39:23.973Z,1012.54
2018-09-22T07:40:23.951Z,1012.51
2018-09-22T07:41:23.959Z,1012.54
2018-09-22T07:42:23.983Z,1012.49
2018-09-22T07:43:24.020Z,1012.50
2018-09-22T07:44:24.067Z,1012.53
2018-09-22T07:45:24.153Z,1012.46
2018-09-22T07:46:24.069Z,1012.48
2018-09-22T07:47:24.086Z,1012.46
2018-09-22T07:48:24.105Z,1012.39
2018-09-22T07:49:24.150Z,1012.40
2018-09-22T07:50:24.147Z,1012.40
2018-09-22T07:51:24.179Z,1012.33
2018-09-22T07:52:24.190Z,1012.39
2018-09-22T07:53:24.209Z,1012.42
2018-09-22T07:54:24.249Z,1012.36
2018-09-22T07:55:24.254Z,1012.37
2018-09-22T07:56:24.287Z,1012.36
2018-09-22T07:57:24.295Z,1012.35
2018-09-22T07:58:24.384Z,1012.39
2018-09-22T07:59:24.329Z,1012.39
2018-09-22T08:00:24.413Z,1012.38
2018-09-22T08:01:24.380Z,1012.37
2018-09-22T08:02:24.407Z,1012.41
2018-09-22T08:03:24.416Z,1012.39
2018-09-22T08:04:24.439Z,1012.40
2018-09-22T08:05:24.462Z,1012.39
2018-09-22T08:06:24.472Z,1012.38
2018-09-22T08:07:25.478Z,1012.40
2018-09-22T08:08:24.517Z,1012.40
2018-09-22T08:09:24.581Z,1012.40
2018-09-22T08:10:24.568Z,1012.41
2018-09-22T08:11:24.582Z,1012.44
2018-09-22T08:12:24.610Z,1012.43
2018-09-22T08:13:24.650Z,1012.45
2018-09-22T08:14:24.642Z,1012.45
2018-09-22T08:15:24.673Z,1012.46
2018-09-22T08:16:24.692Z,1012.46
2018-09-22T08:17:24.716Z,1012.43
2018-09-22T08:18:24.744Z,1012.43
2018-09-22T08:19:24.757Z,1012.41
2018-09-22T08:20:24.774Z,1012.45
2018-09-22T08:21:24.787Z,1012.41
2018-09-22T08:22:24.814Z,1012.43
2018-09-22T08:23:24.840Z,1012.47
2018-09-22T08:24:24.886Z,1012.44
2018-09-22T08:25:24.872Z,1012.45
2018-09-22T08:26:24.933Z,1012.47
2018-09-22T08:27:24.947Z,1012.48
2018-09-22T08:28:24.989Z,1012.50
2018-09-22T08:29:24.981Z,1012.49
2018-09-22T08:30:24.977Z,1012.52
2018-09-22T08:31:24.997Z,1012.54
2018-09-22T08:32:25.024Z,1012.59
2018-09-22T08:33:25.047Z,1012.56
2018-09-22T08:34:25.071Z,1012.52
2018-09-22T08:35:25.085Z,1012.62
2018-09-22T08:36:25.226Z,1012.56
2018-09-22T08:37:25.386Z,1012.54
2018-09-22T08:38:25.150Z,1012.56
2018-09-22T08:39:25.164Z,1012.64
2018-09-22T08:40:25.235Z,1012.62
2018-09-22T08:41:25.212Z,1012.62
2018-09-22T08:42:25.229Z,1012.69
2018-09-22T08:43:25.249Z,1012.70
2018-09-22T08:44:25.267Z,1012.66
2018-09-22T08:45:25.285Z,1012.72
2018-09-22T08:46:25.308Z,1012.66
2018-09-22T08:47:25.334Z,1012.72
2018-09-22T08:48:25.355Z,1012.64
2018-09-22T08:49:25.373Z,1012.63
2018-09-22T08:50:25.403Z,1012.65
2018-09-22T08:51:25.425Z,1012.59
2018-09-22T08:52:25.433Z,1012.61
2018-09-22T08:53:25.455Z,1012.60
2018-09-22T08:54:25.487Z,1012.56
2018-09-22T08:55:25.496Z,1012.53
2018-09-22T08:56:25.523Z,1012.55
2018-09-22T08:57:25.542Z,1012.56
2018-09-22T08:58:25.573Z,1012.65
2018-09-22T08:59:25.579Z,1012.62
2018-09-22T09:00:25.620Z,1012.57
2018-09-22T09:01:25.636Z,1012.59
2018-09-22T09:02:25.650Z,1012.60
2018-09-22T09:03:25.721Z,1012.61
2018-09-22T09:04:25.742Z,1012.65
2018-09-22T09:05:25.723Z,1012.76
2018-09-22T09:06:25.743Z,1012.75
2018-09-22T09:07:25.755Z,1012.78
2018-09-22T09:08:25.799Z,1012.75
2018-09-22T09:09:25.796Z,1012.78
2018-09-22T09:10:25.812Z,1012.82
2018-09-22T09:11:25.915Z,1012.79
2018-09-22T09:12:25.920Z,1012.84
2018-09-22T09:13:25.892Z,1012.79
2018-09-22T09:14:25.909Z,1012.76
2018-09-22T09:15:25.921Z,1012.79
2018-09-22T09:16:25.948Z,1012.78
2018-09-22T09:17:25.963Z,1012.81
2018-09-22T09:18:25.994Z,1012.79
2018-09-22T09:19:26.001Z,1012.84
2018-09-22T09:20:26.037Z,1012.82
2018-09-22T09:21:26.068Z,1012.76
2018-09-22T09:22:26.073Z,1012.75
2018-09-22T09:23:26.093Z,1012.73
2018-09-22T09:24:26.108Z,1012.79
2018-09-22T09:25:26.141Z,1012.86
2018-09-22T09:26:26.149Z,1012.79
2018-09-22T09:27:26.214Z,1012.74
2018-09-22T09:28:26.192Z,1012.74
2018-09-22T09:29:26.236Z,1012.72
2018-09-22T09:30:26.253Z,1012.68
2018-09-22T09:31:26.267Z,1012.77
2018-09-22T09:32:26.283Z,1012.73
2018-09-22T09:33:26.303Z,1012.67
2018-09-22T09:34:26.331Z,1012.64
2018-09-22T09:35:26.348Z,1012.59
2018-09-22T09:36:26.364Z,1012.55
2018-09-22T09:37:26.397Z,1012.53
2018-09-22T09:38:26.412Z,1012.48
2018-09-22T09:39:26.431Z,1012.43
2018-09-22T09:40:26.463Z,1012.39
2018-09-22T09:41:26.482Z,1012.35
2018-09-22T09:42:26.496Z,1012.36
2018-09-22T09:43:26.707Z,1012.24
2018-09-22T09:44:26.555Z,1012.25
2018-09-22T09:45:26.560Z,1012.22
2018-09-22T09:46:26.583Z,1012.25
2018-09-22T09:47:26.616Z,1012.25
2018-09-22T09:48:26.626Z,1012.16
2018-09-22T09:49:26.673Z,1012.15
2018-09-22T09:50:26.696Z,1012.18
2018-09-22T09:51:26.721Z,1012.13
2018-09-22T09:52:26.710Z,1012.10
2018-09-22T09:53:26.737Z,1012.11
2018-09-22T09:54:26.782Z,1012.07
2018-09-22T09:55:26.781Z,1012.09
2018-09-22T09:56:26.799Z,1012.07
2018-09-22T09:57:26.820Z,1012.08
2018-09-22T09:58:26.854Z,1012.05
2018-09-22T09:59:26.874Z,1012.13
2018-09-22T10:00:26.902Z,1012.13
2018-09-22T10:01:26.903Z,1012.13
2018-09-22T10:02:26.937Z,1012.14
2018-09-22T10:03:26.955Z,1012.12
2018-09-22T10:04:27.008Z,1012.16
2018-09-22T10:05:27.003Z,1012.12
2018-09-22T10:06:27.020Z,1012.11
2018-09-22T10:07:27.048Z,1012.04
2018-09-22T10:08:27.069Z,1012.01
2018-09-22T10:09:27.079Z,1012.04
2018-09-22T10:10:27.106Z,1011.98
2018-09-22T10:11:27.121Z,1011.96
2018-09-22T10:12:27.147Z,1012.05
2018-09-22T10:13:27.170Z,1012.01
2018-09-22T10:14:27.186Z,1011.94
2018-09-22T10:15:27.210Z,1011.94
2018-09-22T10:16:27.237Z,1011.94
2018-09-22T10:17:27.250Z,1012.00
2018-09-22T10:18:27.275Z,1012.01
2018-09-22T10:19:27.310Z,1012.05
2018-09-22T10:20:27.332Z,1012.04
2018-09-22T10:21:27.341Z,1011.97
2018-09-22T10:22:27.363Z,1011.97
2018-09-22T10:23:27.378Z,1011.90
2018-09-22T10:24:27.424Z,1011.82
2018-09-22T10:25:27.444Z,1011.84
2018-09-22T10:26:27.448Z,1011.77
2018-09-22T10:27:27.468Z,1011.75
2018-09-22T10:28:27.528Z,1011.79
2018-09-22T10:29:27.506Z,1011.82
2018-09-22T10:30:27.579Z,1011.77
2018-09-22T10:31:27.566Z,1011.75
2018-09-22T10:32:27.582Z,1011.72
2018-09-22T10:33:27.609Z,1011.72
2018-09-22T10:34:27.635Z,1011.80
2018-09-22T10:35:27.648Z,1011.85
2018-09-22T10:36:27.664Z,1011.77
2018-09-22T10:37:27.689Z,1011.81
2018-09-22T10:38:27.704Z,1011.72
2018-09-22T10:39:27.803Z,1011.74
2018-09-22T10:40:27.750Z,1011.66
2018-09-22T10:41:27.768Z,1011.65
2018-09-22T10:42:27.794Z,1011.67
2018-09-22T10:43:27.846Z,1011.73
2018-09-22T10:44:27.833Z,1011.74
2018-09-22T10:45:27.857Z,1011.81
2018-09-22T10:46:27.887Z,1011.77
2018-09-22T10:47:27.906Z,1011.73
2018-09-22T10:48:27.935Z,1011.79
2018-09-22T10:49:27.944Z,1011.74
2018-09-22T10:50:27.965Z,1011.81
2018-09-22T10:51:27.990Z,1011.83
2018-09-22T10:52:28.042Z,1011.83
2018-09-22T10:53:28.035Z,1011.82
2018-09-22T10:54:28.052Z,1011.84
2018-09-22T10:55:28.074Z,1011.86
2018-09-22T10:56:28.108Z,1011.73
2018-09-22T10:57:28.118Z,1011.72
2018-09-22T10:58:28.151Z,1011.76
2018-09-22T10:59:28.167Z,1011.77
2018-09-22T11:00:28.194Z,1011.67
2018-09-22T11:01:28.212Z,1011.70
2018-09-22T11:02:28.233Z,1011.69
2018-09-22T11:03:28.616Z,1011.70
2018-09-22T11:04:28.277Z,1011.70
2018-09-22T11:05:28.355Z,1011.63
2018-09-22T11:06:28.340Z,1011.55
2018-09-22T11:07:28.350Z,1011.62
2018-09-22T11:08:28.365Z,1011.57
2018-09-22T11:09:28.380Z,1011.62
2018-09-22T11:10:28.413Z,1011.53
2018-09-22T11:11:28.488Z,1011.52
2018-09-22T11:12:28.448Z,1011.48
2018-09-22T11:13:28.556Z,1011.53
2018-09-22T11:14:28.492Z,1011.54
2018-09-22T11:15:28.522Z,1011.59
2018-09-22T11:16:28.534Z,1011.59
2018-09-22T11:17:28.559Z,1011.64
2018-09-22T11:18:28.598Z,1011.60
2018-09-22T11:19:28.607Z,1011.53
2018-09-22T11:20:28.647Z,1011.43
2018-09-22T11:21:28.667Z,1011.43
2018-09-22T11:22:28.665Z,1011.43
2018-09-22T11:23:28.726Z,1011.37
2018-09-22T11:24:28.748Z,1011.35
2018-09-22T11:25:28.731Z,1011.23
2018-09-22T11:26:28.763Z,1011.14
2018-09-22T11:27:28.801Z,1011.11
2018-09-22T11:28:28.799Z,1011.18
2018-09-22T11:29:28.841Z,1011.34
2018-09-22T11:30:28.844Z,1011.32
2018-09-22T11:31:28.885Z,1011.34
2018-09-22T11:32:28.946Z,1011.30
2018-09-22T11:33:28.928Z,1011.22
2018-09-22T11:34:28.933Z,1011.16
2018-09-22T11:35:28.955Z,1011.32
2018-09-22T11:36:28.987Z,1011.33
2018-09-22T11:37:29.013Z,1011.34
2018-09-22T11:38:29.207Z,1011.31
2018-09-22T11:39:29.051Z,1011.26
2018-09-22T11:40:29.073Z,1011.32
2018-09-22T11:41:29.086Z,1011.26
2018-09-22T11:42:29.184Z,1011.16
2018-09-22T11:43:29.146Z,1011.29
2018-09-22T11:44:29.201Z,1011.33
2018-09-22T11:45:29.204Z,1011.38
2018-09-22T11:46:29.214Z,1011.38
2018-09-22T11:47:29.230Z,1011.44
2018-09-22T11:48:29.259Z,1011.42
2018-09-22T11:49:29.271Z,1011.43
2018-09-22T11:50:29.312Z,1011.41
2018-09-22T11:51:29.341Z,1011.38
2018-09-22T11:52:29.362Z,1011.38
2018-09-22T11:53:29.369Z,1011.27
2018-09-22T11:54:29.413Z,1011.32
2018-09-22T11:55:29.423Z,1011.29
2018-09-22T11:56:29.457Z,1011.26
2018-09-22T11:57:29.471Z,1011.22
2018-09-22T11:58:29.494Z,1011.16
2018-09-22T11:59:29.525Z,1011.13
2018-09-22T12:00:29.538Z,1011.11
2018-09-22T12:01:29.563Z,1011.06
2018-09-22T12:02:29.597Z,1011.13
2018-09-22T12:03:29.632Z,1011.09
2018-09-22T12:04:29.696Z,1011.13
2018-09-22T12:05:29.663Z,1011.15